sensor_id;sensor_type;location;lat;lon;timestamp;temperature;humidity
59505;DHT22;45321;53.200;5.814;2022-07-29T00:00:13;17.30;66.40
59505;DHT22;45321;53.200;5.814;2022-07-29T00:02:39;17.30;66.10
59505;DHT22;45321;53.200;5.814;2022-07-29T00:05:05;17.30;66.20
59505;DHT22;45321;53.200;5.814;2022-07-29T00:07:30;17.30;66.50
59505;DHT22;45321;53.200;5.814;2022-07-29T00:09:56;17.30;66.60
59505;DHT22;45321;53.200;5.814;2022-07-29T00:12:22;17.30;66.40
59505;DHT22;45321;53.200;5.814;2022-07-29T00:14:48;17.30;66.70
59505;DHT22;45321;53.200;5.814;2022-07-29T00:17:14;17.20;66.90
59505;DHT22;45321;53.200;5.814;2022-07-29T00:19:40;17.30;66.70
59505;DHT22;45321;53.200;5.814;2022-07-29T00:22:05;17.20;67.10
59505;DHT22;45321;53.200;5.814;2022-07-29T00:24:31;17.20;67.20
59505;DHT22;45321;53.200;5.814;2022-07-29T00:26:56;17.20;67.40
59505;DHT22;45321;53.200;5.814;2022-07-29T00:29:22;17.20;67.20
59505;DHT22;45321;53.200;5.814;2022-07-29T00:31:48;17.20;67.50
59505;DHT22;45321;53.200;5.814;2022-07-29T00:34:13;17.20;67.60
59505;DHT22;45321;53.200;5.814;2022-07-29T00:36:58;17.20;67.60
59505;DHT22;45321;53.200;5.814;2022-07-29T00:39:23;17.20;67.50
59505;DHT22;45321;53.200;5.814;2022-07-29T00:41:49;17.20;67.50
59505;DHT22;45321;53.200;5.814;2022-07-29T00:44:15;17.20;67.80
59505;DHT22;45321;53.200;5.814;2022-07-29T00:46:40;17.20;67.50
59505;DHT22;45321;53.200;5.814;2022-07-29T00:49:06;17.20;68.00
59505;DHT22;45321;53.200;5.814;2022-07-29T00:51:37;17.10;68.00
59505;DHT22;45321;53.200;5.814;2022-07-29T00:54:03;17.20;68.10
59505;DHT22;45321;53.200;5.814;2022-07-29T00:56:29;17.20;68.30
59505;DHT22;45321;53.200;5.814;2022-07-29T00:58:55;17.20;68.20
59505;DHT22;45321;53.200;5.814;2022-07-29T01:01:21;17.20;68.40
59505;DHT22;45321;53.200;5.814;2022-07-29T01:03:47;17.20;68.50
59505;DHT22;45321;53.200;5.814;2022-07-29T01:06:12;17.20;68.60
59505;DHT22;45321;53.200;5.814;2022-07-29T01:08:38;17.20;68.50
59505;DHT22;45321;53.200;5.814;2022-07-29T01:11:05;17.20;68.50
59505;DHT22;45321;53.200;5.814;2022-07-29T01:13:30;17.20;68.70
59505;DHT22;45321;53.200;5.814;2022-07-29T01:15:58;17.20;68.80
59505;DHT22;45321;53.200;5.814;2022-07-29T01:18:28;17.20;68.80
59505;DHT22;45321;53.200;5.814;2022-07-29T01:31:16;17.10;69.60
59505;DHT22;45321;53.200;5.814;2022-07-29T01:33:43;17.10;69.60
59505;DHT22;45321;53.200;5.814;2022-07-29T01:36:17;17.10;69.50
59505;DHT22;45321;53.200;5.814;2022-07-29T01:38:44;17.10;69.60
59505;DHT22;45321;53.200;5.814;2022-07-29T01:41:15;17.10;70.00
59505;DHT22;45321;53.200;5.814;2022-07-29T01:43:44;17.10;69.80
59505;DHT22;45321;53.200;5.814;2022-07-29T01:46:12;17.20;70.10
59505;DHT22;45321;53.200;5.814;2022-07-29T01:48:43;17.20;69.90
59505;DHT22;45321;53.200;5.814;2022-07-29T01:51:14;17.20;70.10
59505;DHT22;45321;53.200;5.814;2022-07-29T01:53:55;17.20;70.20
59505;DHT22;45321;53.200;5.814;2022-07-29T01:56:23;17.20;70.20
59505;DHT22;45321;53.200;5.814;2022-07-29T01:58:49;17.20;69.60
59505;DHT22;45321;53.200;5.814;2022-07-29T02:01:16;17.20;70.10
59505;DHT22;45321;53.200;5.814;2022-07-29T02:03:43;17.20;70.10
59505;DHT22;45321;53.200;5.814;2022-07-29T02:06:09;17.20;70.00
59505;DHT22;45321;53.200;5.814;2022-07-29T02:08:36;17.20;70.20
59505;DHT22;45321;53.200;5.814;2022-07-29T02:11:03;17.20;70.00
59505;DHT22;45321;53.200;5.814;2022-07-29T02:13:29;17.20;70.10
59505;DHT22;45321;53.200;5.814;2022-07-29T02:15:57;17.20;70.20
59505;DHT22;45321;53.200;5.814;2022-07-29T02:18:23;17.20;70.40
59505;DHT22;45321;53.200;5.814;2022-07-29T02:20:50;17.20;70.20
59505;DHT22;45321;53.200;5.814;2022-07-29T02:23:19;17.20;70.30
59505;DHT22;45321;53.200;5.814;2022-07-29T02:25:46;17.20;70.60
59505;DHT22;45321;53.200;5.814;2022-07-29T02:28:13;17.20;70.10
59505;DHT22;45321;53.200;5.814;2022-07-29T02:30:40;17.20;70.30
59505;DHT22;45321;53.200;5.814;2022-07-29T02:33:07;17.20;70.20
59505;DHT22;45321;53.200;5.814;2022-07-29T02:35:33;17.20;70.70
59505;DHT22;45321;53.200;5.814;2022-07-29T02:37:59;17.20;70.90
59505;DHT22;45321;53.200;5.814;2022-07-29T02:40:43;17.20;70.80
59505;DHT22;45321;53.200;5.814;2022-07-29T02:43:09;17.20;71.30
59505;DHT22;45321;53.200;5.814;2022-07-29T02:45:35;17.10;71.10
59505;DHT22;45321;53.200;5.814;2022-07-29T02:48:05;17.10;71.10
59505;DHT22;45321;53.200;5.814;2022-07-29T02:50:32;17.10;71.30
59505;DHT22;45321;53.200;5.814;2022-07-29T02:53:05;17.10;71.10
59505;DHT22;45321;53.200;5.814;2022-07-29T03:00:48;17.00;71.40
59505;DHT22;45321;53.200;5.814;2022-07-29T03:03:17;17.00;71.20
59505;DHT22;45321;53.200;5.814;2022-07-29T03:05:43;17.00;70.80
59505;DHT22;45321;53.200;5.814;2022-07-29T03:08:10;17.00;71.00
59505;DHT22;45321;53.200;5.814;2022-07-29T03:10:36;17.00;71.20
59505;DHT22;45321;53.200;5.814;2022-07-29T03:13:02;17.00;71.10
59505;DHT22;45321;53.200;5.814;2022-07-29T03:15:29;17.00;71.10
59505;DHT22;45321;53.200;5.814;2022-07-29T03:17:56;17.00;71.10
59505;DHT22;45321;53.200;5.814;2022-07-29T03:20:22;17.00;70.90
59505;DHT22;45321;53.200;5.814;2022-07-29T03:22:47;17.00;70.80
59505;DHT22;45321;53.200;5.814;2022-07-29T03:25:14;17.00;70.60
59505;DHT22;45321;53.200;5.814;2022-07-29T03:27:40;17.00;70.80
59505;DHT22;45321;53.200;5.814;2022-07-29T03:30:06;17.00;70.90
59505;DHT22;45321;53.200;5.814;2022-07-29T03:32:32;17.00;70.80
59505;DHT22;45321;53.200;5.814;2022-07-29T03:34:58;17.00;70.70
59505;DHT22;45321;53.200;5.814;2022-07-29T03:37:23;17.00;70.70
59505;DHT22;45321;53.200;5.814;2022-07-29T03:39:49;17.00;70.60
59505;DHT22;45321;53.200;5.814;2022-07-29T03:42:15;16.90;70.70
59505;DHT22;45321;53.200;5.814;2022-07-29T03:44:41;17.00;70.80
59505;DHT22;45321;53.200;5.814;2022-07-29T03:47:08;17.00;70.50
59505;DHT22;45321;53.200;5.814;2022-07-29T03:49:34;17.00;70.60
59505;DHT22;45321;53.200;5.814;2022-07-29T03:52:01;17.00;70.60
59505;DHT22;45321;53.200;5.814;2022-07-29T03:54:27;16.90;70.80
59505;DHT22;45321;53.200;5.814;2022-07-29T03:56:52;16.90;70.90
59505;DHT22;45321;53.200;5.814;2022-07-29T03:59:19;16.90;70.70
59505;DHT22;45321;53.200;5.814;2022-07-29T04:01:45;16.90;70.40
59505;DHT22;45321;53.200;5.814;2022-07-29T04:04:11;16.90;70.50
59505;DHT22;45321;53.200;5.814;2022-07-29T04:06:37;16.90;71.00
59505;DHT22;45321;53.200;5.814;2022-07-29T04:09:03;17.00;70.60
59505;DHT22;45321;53.200;5.814;2022-07-29T04:11:29;17.00;71.20
59505;DHT22;45321;53.200;5.814;2022-07-29T04:13:54;16.90;71.00
59505;DHT22;45321;53.200;5.814;2022-07-29T04:16:20;16.90;71.00
59505;DHT22;45321;53.200;5.814;2022-07-29T04:18:45;16.90;71.20
59505;DHT22;45321;53.200;5.814;2022-07-29T04:21:11;17.00;71.10
59505;DHT22;45321;53.200;5.814;2022-07-29T04:23:37;17.00;71.50
59505;DHT22;45321;53.200;5.814;2022-07-29T04:26:02;17.00;71.30
59505;DHT22;45321;53.200;5.814;2022-07-29T04:28:28;16.90;71.20
59505;DHT22;45321;53.200;5.814;2022-07-29T04:30:53;16.90;71.40
59505;DHT22;45321;53.200;5.814;2022-07-29T04:33:19;16.90;71.50
59505;DHT22;45321;53.200;5.814;2022-07-29T04:35:45;16.90;71.30
59505;DHT22;45321;53.200;5.814;2022-07-29T04:38:10;16.90;71.20
59505;DHT22;45321;53.200;5.814;2022-07-29T04:40:36;17.00;71.40
59505;DHT22;45321;53.200;5.814;2022-07-29T04:43:02;16.90;71.20
59505;DHT22;45321;53.200;5.814;2022-07-29T04:45:28;16.90;71.30
59505;DHT22;45321;53.200;5.814;2022-07-29T04:47:54;16.90;71.60
59505;DHT22;45321;53.200;5.814;2022-07-29T04:50:19;16.90;71.50
59505;DHT22;45321;53.200;5.814;2022-07-29T04:52:45;16.90;71.50
59505;DHT22;45321;53.200;5.814;2022-07-29T04:55:10;16.90;71.30
59505;DHT22;45321;53.200;5.814;2022-07-29T04:57:36;16.90;71.40
59505;DHT22;45321;53.200;5.814;2022-07-29T05:00:03;17.00;71.20
59505;DHT22;45321;53.200;5.814;2022-07-29T05:02:29;17.00;71.10
59505;DHT22;45321;53.200;5.814;2022-07-29T05:04:54;16.90;71.50
59505;DHT22;45321;53.200;5.814;2022-07-29T05:07:20;17.00;71.40
59505;DHT22;45321;53.200;5.814;2022-07-29T05:09:45;16.90;71.10
59505;DHT22;45321;53.200;5.814;2022-07-29T05:12:11;17.00;71.30
59505;DHT22;45321;53.200;5.814;2022-07-29T05:14:37;17.00;71.30
59505;DHT22;45321;53.200;5.814;2022-07-29T05:17:03;17.00;71.00
59505;DHT22;45321;53.200;5.814;2022-07-29T05:19:28;17.00;71.40
59505;DHT22;45321;53.200;5.814;2022-07-29T05:21:54;17.00;71.00
59505;DHT22;45321;53.200;5.814;2022-07-29T05:24:19;17.00;70.80
59505;DHT22;45321;53.200;5.814;2022-07-29T05:26:45;17.00;70.90
59505;DHT22;45321;53.200;5.814;2022-07-29T05:29:10;17.10;71.10
59505;DHT22;45321;53.200;5.814;2022-07-29T05:31:36;17.00;71.00
59505;DHT22;45321;53.200;5.814;2022-07-29T05:34:02;17.00;71.20
59505;DHT22;45321;53.200;5.814;2022-07-29T05:36:27;17.00;71.00
59505;DHT22;45321;53.200;5.814;2022-07-29T05:38:53;17.10;71.10
59505;DHT22;45321;53.200;5.814;2022-07-29T05:41:19;17.10;71.20
59505;DHT22;45321;53.200;5.814;2022-07-29T05:43:44;17.10;71.30
59505;DHT22;45321;53.200;5.814;2022-07-29T05:46:10;17.10;71.80
59505;DHT22;45321;53.200;5.814;2022-07-29T05:48:36;17.10;71.60
59505;DHT22;45321;53.200;5.814;2022-07-29T05:51:01;17.10;72.20
59505;DHT22;45321;53.200;5.814;2022-07-29T05:53:27;17.20;71.90
59505;DHT22;45321;53.200;5.814;2022-07-29T05:55:53;17.20;72.10
59505;DHT22;45321;53.200;5.814;2022-07-29T05:58:19;17.20;72.10
59505;DHT22;45321;53.200;5.814;2022-07-29T06:00:44;17.20;72.40
59505;DHT22;45321;53.200;5.814;2022-07-29T06:03:10;17.20;72.30
59505;DHT22;45321;53.200;5.814;2022-07-29T06:05:36;17.30;72.70
59505;DHT22;45321;53.200;5.814;2022-07-29T06:08:01;17.30;73.00
59505;DHT22;45321;53.200;5.814;2022-07-29T06:10:27;17.30;72.50
59505;DHT22;45321;53.200;5.814;2022-07-29T06:12:53;17.40;72.70
59505;DHT22;45321;53.200;5.814;2022-07-29T06:15:18;17.40;72.80
59505;DHT22;45321;53.200;5.814;2022-07-29T06:17:44;17.50;72.70
59505;DHT22;45321;53.200;5.814;2022-07-29T06:20:10;17.50;72.00
59505;DHT22;45321;53.200;5.814;2022-07-29T06:22:36;17.60;71.80
59505;DHT22;45321;53.200;5.814;2022-07-29T06:25:02;17.70;71.10
59505;DHT22;45321;53.200;5.814;2022-07-29T06:27:28;17.70;71.10
59505;DHT22;45321;53.200;5.814;2022-07-29T06:29:55;17.70;71.20
59505;DHT22;45321;53.200;5.814;2022-07-29T06:32:21;17.80;70.80
59505;DHT22;45321;53.200;5.814;2022-07-29T06:34:47;17.80;70.70
59505;DHT22;45321;53.200;5.814;2022-07-29T06:37:13;17.80;70.90
59505;DHT22;45321;53.200;5.814;2022-07-29T06:39:39;17.90;70.50
59505;DHT22;45321;53.200;5.814;2022-07-29T06:42:05;18.00;70.90
59505;DHT22;45321;53.200;5.814;2022-07-29T06:44:30;18.00;70.30
59505;DHT22;45321;53.200;5.814;2022-07-29T06:46:56;18.10;70.50
59505;DHT22;45321;53.200;5.814;2022-07-29T06:49:22;18.10;70.30
59505;DHT22;45321;53.200;5.814;2022-07-29T06:51:49;18.20;70.00
59505;DHT22;45321;53.200;5.814;2022-07-29T06:54:15;18.20;69.90
59505;DHT22;45321;53.200;5.814;2022-07-29T06:56:40;18.20;69.80
59505;DHT22;45321;53.200;5.814;2022-07-29T06:59:07;18.30;69.50
59505;DHT22;45321;53.200;5.814;2022-07-29T07:01:33;18.30;69.10
59505;DHT22;45321;53.200;5.814;2022-07-29T07:03:58;18.40;69.40
59505;DHT22;45321;53.200;5.814;2022-07-29T07:06:24;18.50;69.40
59505;DHT22;45321;53.200;5.814;2022-07-29T07:08:50;18.60;69.00
59505;DHT22;45321;53.200;5.814;2022-07-29T07:11:15;18.70;68.50
59505;DHT22;45321;53.200;5.814;2022-07-29T07:13:41;18.70;68.00
59505;DHT22;45321;53.200;5.814;2022-07-29T07:16:06;18.70;68.50
59505;DHT22;45321;53.200;5.814;2022-07-29T07:18:32;18.70;68.60
59505;DHT22;45321;53.200;5.814;2022-07-29T07:20:58;18.80;68.90
59505;DHT22;45321;53.200;5.814;2022-07-29T07:23:24;18.80;68.00
59505;DHT22;45321;53.200;5.814;2022-07-29T07:25:50;18.90;68.00
59505;DHT22;45321;53.200;5.814;2022-07-29T07:28:16;19.00;67.80
59505;DHT22;45321;53.200;5.814;2022-07-29T07:30:41;19.00;67.20
59505;DHT22;45321;53.200;5.814;2022-07-29T07:33:07;19.00;67.10
59505;DHT22;45321;53.200;5.814;2022-07-29T07:35:33;19.00;66.90
59505;DHT22;45321;53.200;5.814;2022-07-29T07:37:58;19.10;66.70
59505;DHT22;45321;53.200;5.814;2022-07-29T07:40:24;19.10;66.10
59505;DHT22;45321;53.200;5.814;2022-07-29T07:42:50;19.00;66.20
59505;DHT22;45321;53.200;5.814;2022-07-29T07:45:15;19.10;66.40
59505;DHT22;45321;53.200;5.814;2022-07-29T07:47:41;19.00;66.60
59505;DHT22;45321;53.200;5.814;2022-07-29T07:50:08;19.00;66.60
59505;DHT22;45321;53.200;5.814;2022-07-29T07:52:34;19.00;67.00
59505;DHT22;45321;53.200;5.814;2022-07-29T07:55:00;19.00;67.10
59505;DHT22;45321;53.200;5.814;2022-07-29T07:57:26;19.00;67.20
59505;DHT22;45321;53.200;5.814;2022-07-29T07:59:52;19.00;67.40
59505;DHT22;45321;53.200;5.814;2022-07-29T08:02:17;19.00;67.50
59505;DHT22;45321;53.200;5.814;2022-07-29T08:04:43;19.00;66.90
59505;DHT22;45321;53.200;5.814;2022-07-29T08:07:08;19.00;66.90
59505;DHT22;45321;53.200;5.814;2022-07-29T08:09:34;19.00;66.80
59505;DHT22;45321;53.200;5.814;2022-07-29T08:12:00;19.00;67.20
59505;DHT22;45321;53.200;5.814;2022-07-29T08:14:29;19.10;67.40
59505;DHT22;45321;53.200;5.814;2022-07-29T08:16:55;19.10;67.00
59505;DHT22;45321;53.200;5.814;2022-07-29T08:19:20;19.20;67.20
59505;DHT22;45321;53.200;5.814;2022-07-29T08:21:46;19.20;67.20
59505;DHT22;45321;53.200;5.814;2022-07-29T08:24:12;19.30;67.10
59505;DHT22;45321;53.200;5.814;2022-07-29T08:26:56;19.30;67.40
59505;DHT22;45321;53.200;5.814;2022-07-29T08:29:22;19.50;66.60
59505;DHT22;45321;53.200;5.814;2022-07-29T08:31:47;19.50;67.00
59505;DHT22;45321;53.200;5.814;2022-07-29T08:34:13;19.70;66.70
59505;DHT22;45321;53.200;5.814;2022-07-29T08:36:39;19.70;66.60
59505;DHT22;45321;53.200;5.814;2022-07-29T08:39:04;19.80;65.90
59505;DHT22;45321;53.200;5.814;2022-07-29T08:41:30;19.90;65.60
59505;DHT22;45321;53.200;5.814;2022-07-29T08:43:56;19.90;65.00
59505;DHT22;45321;53.200;5.814;2022-07-29T08:46:22;20.00;65.50
59505;DHT22;45321;53.200;5.814;2022-07-29T08:48:48;20.00;65.80
59505;DHT22;45321;53.200;5.814;2022-07-29T08:51:15;20.00;65.30
59505;DHT22;45321;53.200;5.814;2022-07-29T08:53:44;20.10;65.00
59505;DHT22;45321;53.200;5.814;2022-07-29T08:56:17;20.00;64.80
59505;DHT22;45321;53.200;5.814;2022-07-29T08:58:43;20.00;64.80
59505;DHT22;45321;53.200;5.814;2022-07-29T09:01:09;19.90;65.10
59505;DHT22;45321;53.200;5.814;2022-07-29T09:03:36;19.90;65.20
59505;DHT22;45321;53.200;5.814;2022-07-29T09:06:02;19.90;65.90
59505;DHT22;45321;53.200;5.814;2022-07-29T09:08:28;19.90;66.80
59505;DHT22;45321;53.200;5.814;2022-07-29T09:10:55;19.90;66.40
59505;DHT22;45321;53.200;5.814;2022-07-29T09:13:21;20.00;66.50
59505;DHT22;45321;53.200;5.814;2022-07-29T09:15:47;20.00;66.20
59505;DHT22;45321;53.200;5.814;2022-07-29T09:18:30;20.00;66.80
59505;DHT22;45321;53.200;5.814;2022-07-29T09:20:58;19.90;66.40
59505;DHT22;45321;53.200;5.814;2022-07-29T09:23:58;19.90;65.60
59505;DHT22;45321;53.200;5.814;2022-07-29T09:26:27;19.80;65.80
59505;DHT22;45321;53.200;5.814;2022-07-29T09:28:53;19.90;66.10
59505;DHT22;45321;53.200;5.814;2022-07-29T09:31:18;19.90;66.00
59505;DHT22;45321;53.200;5.814;2022-07-29T09:33:51;19.90;66.80
59505;DHT22;45321;53.200;5.814;2022-07-29T09:36:17;19.90;65.80
59505;DHT22;45321;53.200;5.814;2022-07-29T09:38:42;19.90;66.90
59505;DHT22;45321;53.200;5.814;2022-07-29T09:41:08;19.90;67.10
59505;DHT22;45321;53.200;5.814;2022-07-29T09:43:35;20.00;66.50
59505;DHT22;45321;53.200;5.814;2022-07-29T09:46:10;20.10;67.60
59505;DHT22;45321;53.200;5.814;2022-07-29T09:48:37;20.10;66.10
59505;DHT22;45321;53.200;5.814;2022-07-29T09:51:02;20.10;66.50
59505;DHT22;45321;53.200;5.814;2022-07-29T09:53:31;20.20;67.10
59505;DHT22;45321;53.200;5.814;2022-07-29T09:55:57;20.20;66.60
59505;DHT22;45321;53.200;5.814;2022-07-29T09:58:22;20.20;66.40
59505;DHT22;45321;53.200;5.814;2022-07-29T10:00:50;20.20;66.20
59505;DHT22;45321;53.200;5.814;2022-07-29T10:03:16;20.20;66.30
59505;DHT22;45321;53.200;5.814;2022-07-29T10:05:42;20.20;65.80
59505;DHT22;45321;53.200;5.814;2022-07-29T10:08:08;20.20;66.20
59505;DHT22;45321;53.200;5.814;2022-07-29T10:10:36;20.20;66.90
59505;DHT22;45321;53.200;5.814;2022-07-29T10:13:04;20.20;66.40
59505;DHT22;45321;53.200;5.814;2022-07-29T10:15:31;20.20;67.10
59505;DHT22;45321;53.200;5.814;2022-07-29T10:17:58;20.10;66.50
59505;DHT22;45321;53.200;5.814;2022-07-29T10:20:24;20.10;66.80
59505;DHT22;45321;53.200;5.814;2022-07-29T10:22:50;20.10;66.80
59505;DHT22;45321;53.200;5.814;2022-07-29T10:25:16;20.00;67.10
59505;DHT22;45321;53.200;5.814;2022-07-29T10:27:42;20.00;67.50
59505;DHT22;45321;53.200;5.814;2022-07-29T10:30:08;20.00;66.80
59505;DHT22;45321;53.200;5.814;2022-07-29T10:32:39;20.00;66.90
59505;DHT22;45321;53.200;5.814;2022-07-29T10:43:26;20.10;67.00
59505;DHT22;45321;53.200;5.814;2022-07-29T10:45:55;20.10;66.90
59505;DHT22;45321;53.200;5.814;2022-07-29T10:48:21;20.20;67.60
59505;DHT22;45321;53.200;5.814;2022-07-29T10:50:54;20.20;67.10
59505;DHT22;45321;53.200;5.814;2022-07-29T10:53:21;20.30;66.60
59505;DHT22;45321;53.200;5.814;2022-07-29T10:55:47;20.40;67.30
59505;DHT22;45321;53.200;5.814;2022-07-29T10:58:21;20.50;67.50
59505;DHT22;45321;53.200;5.814;2022-07-29T11:00:51;20.50;67.30
59505;DHT22;45321;53.200;5.814;2022-07-29T11:04:02;20.60;67.40
59505;DHT22;45321;53.200;5.814;2022-07-29T11:06:02;20.60;67.60
59505;DHT22;45321;53.200;5.814;2022-07-29T11:08:28;20.70;67.70
59505;DHT22;45321;53.200;5.814;2022-07-29T11:16:09;20.70;66.30
59505;DHT22;45321;53.200;5.814;2022-07-29T11:18:35;20.60;66.60
59505;DHT22;45321;53.200;5.814;2022-07-29T11:21:00;20.50;66.20
59505;DHT22;45321;53.200;5.814;2022-07-29T11:23:30;20.50;66.80
59505;DHT22;45321;53.200;5.814;2022-07-29T11:34:18;20.50;68.20
59505;DHT22;45321;53.200;5.814;2022-07-29T11:39:28;20.50;68.20
59505;DHT22;45321;53.200;5.814;2022-07-29T11:42:24;20.50;67.60
59505;DHT22;45321;53.200;5.814;2022-07-29T11:47:24;20.50;68.30
59505;DHT22;45321;53.200;5.814;2022-07-29T11:49:51;20.50;68.20
59505;DHT22;45321;53.200;5.814;2022-07-29T11:52:20;20.40;68.10
59505;DHT22;45321;53.200;5.814;2022-07-29T11:54:47;20.50;68.00
59505;DHT22;45321;53.200;5.814;2022-07-29T11:57:12;20.50;68.70
59505;DHT22;45321;53.200;5.814;2022-07-29T11:59:39;20.50;68.90
59505;DHT22;45321;53.200;5.814;2022-07-29T12:02:07;20.50;68.70
59505;DHT22;45321;53.200;5.814;2022-07-29T12:04:33;20.50;68.80
59505;DHT22;45321;53.200;5.814;2022-07-29T12:06:59;20.60;67.90
59505;DHT22;45321;53.200;5.814;2022-07-29T12:09:25;20.60;68.00
59505;DHT22;45321;53.200;5.814;2022-07-29T12:11:57;20.60;68.30
59505;DHT22;45321;53.200;5.814;2022-07-29T12:14:31;20.60;68.30
59505;DHT22;45321;53.200;5.814;2022-07-29T12:16:57;20.70;68.70
59505;DHT22;45321;53.200;5.814;2022-07-29T12:19:23;20.70;68.50
59505;DHT22;45321;53.200;5.814;2022-07-29T12:21:52;20.80;68.70
59505;DHT22;45321;53.200;5.814;2022-07-29T12:24:18;20.90;69.10
59505;DHT22;45321;53.200;5.814;2022-07-29T12:26:50;20.90;68.80
59505;DHT22;45321;53.200;5.814;2022-07-29T12:29:16;21.00;68.00
59505;DHT22;45321;53.200;5.814;2022-07-29T12:31:43;21.10;68.00
59505;DHT22;45321;53.200;5.814;2022-07-29T12:34:10;21.20;68.10
59505;DHT22;45321;53.200;5.814;2022-07-29T12:36:36;21.20;68.50
59505;DHT22;45321;53.200;5.814;2022-07-29T12:39:02;21.20;68.20
59505;DHT22;45321;53.200;5.814;2022-07-29T12:41:28;21.30;68.70
59505;DHT22;45321;53.200;5.814;2022-07-29T12:43:54;21.40;68.50
59505;DHT22;45321;53.200;5.814;2022-07-29T12:46:20;21.60;67.80
59505;DHT22;45321;53.200;5.814;2022-07-29T12:48:49;21.70;67.80
59505;DHT22;45321;53.200;5.814;2022-07-29T12:51:15;21.70;66.90
59505;DHT22;45321;53.200;5.814;2022-07-29T12:53:51;21.70;65.10
59505;DHT22;45321;53.200;5.814;2022-07-29T12:56:26;21.70;65.80
59505;DHT22;45321;53.200;5.814;2022-07-29T12:58:52;21.70;66.30
59505;DHT22;45321;53.200;5.814;2022-07-29T13:01:18;21.80;66.70
59505;DHT22;45321;53.200;5.814;2022-07-29T13:03:54;22.00;66.90
59505;DHT22;45321;53.200;5.814;2022-07-29T13:09:00;22.20;64.70
59505;DHT22;45321;53.200;5.814;2022-07-29T13:11:27;22.30;65.30
59505;DHT22;45321;53.200;5.814;2022-07-29T13:13:53;22.50;64.50
59505;DHT22;45321;53.200;5.814;2022-07-29T13:16:18;22.60;64.00
59505;DHT22;45321;53.200;5.814;2022-07-29T13:18:44;22.60;63.00
59505;DHT22;45321;53.200;5.814;2022-07-29T13:21:13;22.60;62.40
59505;DHT22;45321;53.200;5.814;2022-07-29T13:23:40;22.60;62.50
59505;DHT22;45321;53.200;5.814;2022-07-29T13:26:06;22.60;62.20
59505;DHT22;45321;53.200;5.814;2022-07-29T13:28:32;22.60;60.50
59505;DHT22;45321;53.200;5.814;2022-07-29T13:30:58;22.70;61.90
59505;DHT22;45321;53.200;5.814;2022-07-29T13:33:24;22.70;62.90
59505;DHT22;45321;53.200;5.814;2022-07-29T13:35:49;22.90;64.10
59505;DHT22;45321;53.200;5.814;2022-07-29T13:38:15;23.00;63.00
59505;DHT22;45321;53.200;5.814;2022-07-29T13:40:41;23.20;59.70
59505;DHT22;45321;53.200;5.814;2022-07-29T13:43:08;23.50;59.00
59505;DHT22;45321;53.200;5.814;2022-07-29T13:45:34;23.60;57.20
59505;DHT22;45321;53.200;5.814;2022-07-29T13:47:59;23.70;56.40
59505;DHT22;45321;53.200;5.814;2022-07-29T13:50:25;23.70;56.20
59505;DHT22;45321;53.200;5.814;2022-07-29T13:52:51;23.70;56.40
59505;DHT22;45321;53.200;5.814;2022-07-29T13:55:16;23.70;57.10
59505;DHT22;45321;53.200;5.814;2022-07-29T13:57:42;23.70;56.30
59505;DHT22;45321;53.200;5.814;2022-07-29T14:00:08;23.70;56.70
59505;DHT22;45321;53.200;5.814;2022-07-29T14:02:33;23.70;57.30
59505;DHT22;45321;53.200;5.814;2022-07-29T14:04:59;23.70;57.50
59505;DHT22;45321;53.200;5.814;2022-07-29T14:07:24;23.80;57.30
59505;DHT22;45321;53.200;5.814;2022-07-29T14:09:50;23.90;56.90
59505;DHT22;45321;53.200;5.814;2022-07-29T14:12:16;24.30;56.40
59505;DHT22;45321;53.200;5.814;2022-07-29T14:14:41;24.60;55.00
59505;DHT22;45321;53.200;5.814;2022-07-29T14:17:08;24.90;54.20
59505;DHT22;45321;53.200;5.814;2022-07-29T14:19:33;25.20;53.10
59505;DHT22;45321;53.200;5.814;2022-07-29T14:22:01;25.70;50.80
59505;DHT22;45321;53.200;5.814;2022-07-29T14:24:27;26.20;49.50
59505;DHT22;45321;53.200;5.814;2022-07-29T14:26:53;26.20;50.90
59505;DHT22;45321;53.200;5.814;2022-07-29T14:29:18;26.10;51.70
59505;DHT22;45321;53.200;5.814;2022-07-29T14:31:44;26.10;52.80
59505;DHT22;45321;53.200;5.814;2022-07-29T14:34:10;26.20;51.90
59505;DHT22;45321;53.200;5.814;2022-07-29T14:36:35;26.20;52.70
59505;DHT22;45321;53.200;5.814;2022-07-29T14:39:01;26.40;50.10
59505;DHT22;45321;53.200;5.814;2022-07-29T14:41:27;26.60;49.20
59505;DHT22;45321;53.200;5.814;2022-07-29T14:43:53;26.80;49.80
59505;DHT22;45321;53.200;5.814;2022-07-29T14:46:19;27.00;47.90
59505;DHT22;45321;53.200;5.814;2022-07-29T14:48:45;27.40;47.30
59505;DHT22;45321;53.200;5.814;2022-07-29T14:51:10;27.70;46.20
59505;DHT22;45321;53.200;5.814;2022-07-29T14:53:37;28.00;47.40
59505;DHT22;45321;53.200;5.814;2022-07-29T14:56:02;28.40;46.30
59505;DHT22;45321;53.200;5.814;2022-07-29T14:58:28;28.70;44.70
59505;DHT22;45321;53.200;5.814;2022-07-29T15:00:53;29.00;44.50
59505;DHT22;45321;53.200;5.814;2022-07-29T15:03:20;29.20;44.70
59505;DHT22;45321;53.200;5.814;2022-07-29T15:05:46;29.30;43.90
59505;DHT22;45321;53.200;5.814;2022-07-29T15:08:11;29.10;44.20
59505;DHT22;45321;53.200;5.814;2022-07-29T15:10:37;28.70;44.30
59505;DHT22;45321;53.200;5.814;2022-07-29T15:13:03;28.30;44.30
59505;DHT22;45321;53.200;5.814;2022-07-29T15:15:28;28.10;45.30
59505;DHT22;45321;53.200;5.814;2022-07-29T15:17:54;27.90;44.90
59505;DHT22;45321;53.200;5.814;2022-07-29T15:20:19;27.70;45.40
59505;DHT22;45321;53.200;5.814;2022-07-29T15:22:46;27.50;46.70
59505;DHT22;45321;53.200;5.814;2022-07-29T15:25:12;27.20;47.00
59505;DHT22;45321;53.200;5.814;2022-07-29T15:27:37;27.00;47.50
59505;DHT22;45321;53.200;5.814;2022-07-29T15:30:03;26.80;47.40
59505;DHT22;45321;53.200;5.814;2022-07-29T15:32:29;26.60;48.20
59505;DHT22;45321;53.200;5.814;2022-07-29T15:34:54;26.60;49.00
59505;DHT22;45321;53.200;5.814;2022-07-29T15:37:20;26.50;48.20
59505;DHT22;45321;53.200;5.814;2022-07-29T15:39:46;26.40;48.90
59505;DHT22;45321;53.200;5.814;2022-07-29T15:42:11;26.30;48.50
59505;DHT22;45321;53.200;5.814;2022-07-29T15:44:37;26.20;48.50
59505;DHT22;45321;53.200;5.814;2022-07-29T15:47:02;26.20;48.20
59505;DHT22;45321;53.200;5.814;2022-07-29T15:49:32;26.00;48.80
59505;DHT22;45321;53.200;5.814;2022-07-29T15:51:58;25.90;49.90
59505;DHT22;45321;53.200;5.814;2022-07-29T15:54:24;25.80;50.00
59505;DHT22;45321;53.200;5.814;2022-07-29T15:56:50;25.70;50.40
59505;DHT22;45321;53.200;5.814;2022-07-29T15:59:16;25.60;50.40
59505;DHT22;45321;53.200;5.814;2022-07-29T16:01:41;25.60;49.60
59505;DHT22;45321;53.200;5.814;2022-07-29T16:04:07;25.50;50.90
59505;DHT22;45321;53.200;5.814;2022-07-29T16:06:32;25.50;50.00
59505;DHT22;45321;53.200;5.814;2022-07-29T16:08:58;25.50;50.90
59505;DHT22;45321;53.200;5.814;2022-07-29T16:11:24;25.50;50.60